sensor_id;sensor_type;location;lat;lon;timestamp;temperature;humidity
66582;SHT31;53438;48.898;2.308;2023-04-15T03:02:18;9.60;90.28
66582;SHT31;53438;48.898;2.308;2023-04-15T03:04:43;9.60;90.13
66582;SHT31;53438;48.898;2.308;2023-04-15T03:07:08;9.59;90.25
66582;SHT31;53438;48.898;2.308;2023-04-15T03:09:33;9.60;90.25
66582;SHT31;53438;48.898;2.308;2023-04-15T03:11:59;9.66;90.22
66582;SHT31;53438;48.898;2.308;2023-04-15T03:14:25;9.67;90.26
66582;SHT31;53438;48.898;2.308;2023-04-15T03:16:51;9.77;90.23
66582;SHT31;53438;48.898;2.308;2023-04-15T03:19:16;9.76;89.99
66582;SHT31;53438;48.898;2.308;2023-04-15T03:21:42;9.76;90.13
66582;SHT31;53438;48.898;2.308;2023-04-15T03:24:07;9.66;89.81
66582;SHT31;53438;48.898;2.308;2023-04-15T03:26:32;9.75;89.94
66582;SHT31;53438;48.898;2.308;2023-04-15T03:28:58;9.76;89.73
66582;SHT31;53438;48.898;2.308;2023-04-15T03:31:23;9.77;89.93
66582;SHT31;53438;48.898;2.308;2023-04-15T03:33:49;9.79;89.46
66582;SHT31;53438;48.898;2.308;2023-04-15T03:36:14;9.69;89.78
66582;SHT31;53438;48.898;2.308;2023-04-15T03:38:41;9.76;89.31
66582;SHT31;53438;48.898;2.308;2023-04-15T03:41:06;9.63;88.81
66582;SHT31;53438;48.898;2.308;2023-04-15T03:43:32;9.56;87.70
66582;SHT31;53438;48.898;2.308;2023-04-15T03:45:57;9.59;87.86
66582;SHT31;53438;48.898;2.308;2023-04-15T03:48:22;9.56;87.72
66582;SHT31;53438;48.898;2.308;2023-04-15T03:50:48;9.56;87.77
66582;SHT31;53438;48.898;2.308;2023-04-15T03:53:14;9.49;87.16
66582;SHT31;53438;48.898;2.308;2023-04-15T03:55:40;9.62;87.66
66582;SHT31;53438;48.898;2.308;2023-04-15T03:58:05;9.46;86.84
66582;SHT31;53438;48.898;2.308;2023-04-15T04:00:31;9.45;87.05
66582;SHT31;53438;48.898;2.308;2023-04-15T04:02:56;9.49;87.22
66582;SHT31;53438;48.898;2.308;2023-04-15T04:05:21;9.45;87.20
66582;SHT31;53438;48.898;2.308;2023-04-15T04:07:47;9.36;87.50
66582;SHT31;53438;48.898;2.308;2023-04-15T04:10:12;9.42;87.92
66582;SHT31;53438;48.898;2.308;2023-04-15T04:12:38;9.38;87.81
66582;SHT31;53438;48.898;2.308;2023-04-15T04:15:04;9.17;87.70
66582;SHT31;53438;48.898;2.308;2023-04-15T04:17:29;9.26;88.47
66582;SHT31;53438;48.898;2.308;2023-04-15T04:19:54;9.29;88.52
66582;SHT31;53438;48.898;2.308;2023-04-15T04:22:23;9.24;88.60
66582;SHT31;53438;48.898;2.308;2023-04-15T04:24:49;9.18;88.54
66582;SHT31;53438;48.898;2.308;2023-04-15T04:27:14;9.28;88.77
66582;SHT31;53438;48.898;2.308;2023-04-15T04:29:40;9.38;88.76
66582;SHT31;53438;48.898;2.308;2023-04-15T04:32:05;9.22;88.26
66582;SHT31;53438;48.898;2.308;2023-04-15T04:34:31;9.18;88.49
66582;SHT31;53438;48.898;2.308;2023-04-15T04:36:56;9.26;88.82
66582;SHT31;53438;48.898;2.308;2023-04-15T04:39:22;9.38;88.95
66582;SHT31;53438;48.898;2.308;2023-04-15T04:41:47;9.25;88.07
66582;SHT31;53438;48.898;2.308;2023-04-15T04:44:12;9.10;88.05
66582;SHT31;53438;48.898;2.308;2023-04-15T04:46:38;9.24;88.71
66582;SHT31;53438;48.898;2.308;2023-04-15T04:49:03;9.12;87.97
66582;SHT31;53438;48.898;2.308;2023-04-15T04:51:28;9.21;88.41
66582;SHT31;53438;48.898;2.308;2023-04-15T04:53:54;9.15;87.97
66582;SHT31;53438;48.898;2.308;2023-04-15T04:56:19;9.10;87.85
66582;SHT31;53438;48.898;2.308;2023-04-15T04:58:44;9.25;87.98
66582;SHT31;53438;48.898;2.308;2023-04-15T05:01:09;9.25;87.36
66582;SHT31;53438;48.898;2.308;2023-04-15T05:03:35;9.11;87.30
66582;SHT31;53438;48.898;2.308;2023-04-15T05:06:00;9.12;87.08
66582;SHT31;53438;48.898;2.308;2023-04-15T05:08:30;9.05;86.98
66582;SHT31;53438;48.898;2.308;2023-04-15T05:10:55;9.08;87.12
66582;SHT31;53438;48.898;2.308;2023-04-15T05:13:20;9.05;87.29
66582;SHT31;53438;48.898;2.308;2023-04-15T05:15:46;9.00;86.67
66582;SHT31;53438;48.898;2.308;2023-04-15T05:18:12;8.98;86.93
66582;SHT31;53438;48.898;2.308;2023-04-15T05:20:37;9.04;86.97
66582;SHT31;53438;48.898;2.308;2023-04-15T05:23:03;9.03;86.41
66582;SHT31;53438;48.898;2.308;2023-04-15T05:25:28;9.03;86.79
66582;SHT31;53438;48.898;2.308;2023-04-15T05:27:53;8.97;86.84
66582;SHT31;53438;48.898;2.308;2023-04-15T05:30:19;8.94;86.83
66582;SHT31;53438;48.898;2.308;2023-04-15T05:32:44;9.04;87.10
66582;SHT31;53438;48.898;2.308;2023-04-15T05:35:10;8.95;87.35
66582;SHT31;53438;48.898;2.308;2023-04-15T05:37:35;8.97;87.50
66582;SHT31;53438;48.898;2.308;2023-04-15T05:40:01;8.97;87.74
66582;SHT31;53438;48.898;2.308;2023-04-15T05:42:26;8.92;87.95
66582;SHT31;53438;48.898;2.308;2023-04-15T05:44:51;8.97;87.99
66582;SHT31;53438;48.898;2.308;2023-04-15T05:47:22;8.97;87.96
66582;SHT31;53438;48.898;2.308;2023-04-15T05:49:48;9.03;88.26
66582;SHT31;53438;48.898;2.308;2023-04-15T05:52:13;8.97;88.05
66582;SHT31;53438;48.898;2.308;2023-04-15T05:54:38;8.97;88.37
66582;SHT31;53438;48.898;2.308;2023-04-15T05:57:04;9.03;88.23
66582;SHT31;53438;48.898;2.308;2023-04-15T05:59:29;9.04;87.96
66582;SHT31;53438;48.898;2.308;2023-04-15T06:01:55;9.07;88.00
66582;SHT31;53438;48.898;2.308;2023-04-15T06:04:20;9.03;87.90
66582;SHT31;53438;48.898;2.308;2023-04-15T06:06:46;9.12;87.91
66582;SHT31;53438;48.898;2.308;2023-04-15T06:09:12;9.11;87.92
66582;SHT31;53438;48.898;2.308;2023-04-15T06:11:37;9.12;87.82
66582;SHT31;53438;48.898;2.308;2023-04-15T06:14:02;9.14;87.88
66582;SHT31;53438;48.898;2.308;2023-04-15T06:16:28;9.21;88.11
66582;SHT31;53438;48.898;2.308;2023-04-15T06:18:53;9.22;87.94
66582;SHT31;53438;48.898;2.308;2023-04-15T06:21:18;9.22;87.43
66582;SHT31;53438;48.898;2.308;2023-04-15T06:23:45;9.24;87.89
66582;SHT31;53438;48.898;2.308;2023-04-15T06:26:11;9.29;87.61
66582;SHT31;53438;48.898;2.308;2023-04-15T06:28:38;9.34;87.61
66582;SHT31;53438;48.898;2.308;2023-04-15T06:31:03;9.28;87.44
66582;SHT31;53438;48.898;2.308;2023-04-15T06:33:29;9.22;87.49
66582;SHT31;53438;48.898;2.308;2023-04-15T06:35:54;9.24;87.69
66582;SHT31;53438;48.898;2.308;2023-04-15T06:38:20;9.21;87.36
66582;SHT31;53438;48.898;2.308;2023-04-15T06:40:45;9.25;87.78
66582;SHT31;53438;48.898;2.308;2023-04-15T06:43:11;9.31;87.52
66582;SHT31;53438;48.898;2.308;2023-04-15T06:45:37;9.34;87.33
66582;SHT31;53438;48.898;2.308;2023-04-15T06:48:02;9.32;87.30
66582;SHT31;53438;48.898;2.308;2023-04-15T06:50:27;9.29;87.33
66582;SHT31;53438;48.898;2.308;2023-04-15T06:52:54;9.28;87.34
66582;SHT31;53438;48.898;2.308;2023-04-15T06:55:20;9.29;86.83
66582;SHT31;53438;48.898;2.308;2023-04-15T06:57:45;9.29;86.99
66582;SHT31;53438;48.898;2.308;2023-04-15T07:00:11;9.32;86.91
66582;SHT31;53438;48.898;2.308;2023-04-15T07:02:36;9.29;87.07
66582;SHT31;53438;48.898;2.308;2023-04-15T07:05:02;9.32;87.27
66582;SHT31;53438;48.898;2.308;2023-04-15T07:07:28;9.38;87.29
66582;SHT31;53438;48.898;2.308;2023-04-15T07:09:54;9.35;87.54
66582;SHT31;53438;48.898;2.308;2023-04-15T07:12:19;9.35;87.53
66582;SHT31;53438;48.898;2.308;2023-04-15T07:14:45;9.25;87.58
66582;SHT31;53438;48.898;2.308;2023-04-15T07:17:11;9.28;87.87
66582;SHT31;53438;48.898;2.308;2023-04-15T07:19:37;9.28;88.06
66582;SHT31;53438;48.898;2.308;2023-04-15T07:22:02;9.25;88.30
66582;SHT31;53438;48.898;2.308;2023-04-15T07:24:28;9.31;88.26
66582;SHT31;53438;48.898;2.308;2023-04-15T07:26:53;9.29;88.63
66582;SHT31;53438;48.898;2.308;2023-04-15T07:29:21;9.29;88.39
66582;SHT31;53438;48.898;2.308;2023-04-15T07:31:47;9.31;88.34
66582;SHT31;53438;48.898;2.308;2023-04-15T07:34:12;9.32;88.33
66582;SHT31;53438;48.898;2.308;2023-04-15T07:36:38;9.35;88.28
66582;SHT31;53438;48.898;2.308;2023-04-15T07:39:04;9.36;87.63
66582;SHT31;53438;48.898;2.308;2023-04-15T07:41:30;9.36;87.54
66582;SHT31;53438;48.898;2.308;2023-04-15T07:43:56;9.39;87.84
66582;SHT31;53438;48.898;2.308;2023-04-15T07:46:21;9.35;87.74
66582;SHT31;53438;48.898;2.308;2023-04-15T07:48:48;9.36;87.95
66582;SHT31;53438;48.898;2.308;2023-04-15T07:51:15;9.31;87.85
66582;SHT31;53438;48.898;2.308;2023-04-15T07:53:41;9.28;88.02
66582;SHT31;53438;48.898;2.308;2023-04-15T07:56:07;9.32;88.05
66582;SHT31;53438;48.898;2.308;2023-04-15T07:58:32;9.32;87.84
66582;SHT31;53438;48.898;2.308;2023-04-15T08:00:57;9.28;87.80
66582;SHT31;53438;48.898;2.308;2023-04-15T08:03:24;9.34;87.28
66582;SHT31;53438;48.898;2.308;2023-04-15T08:05:49;9.36;87.38
66582;SHT31;53438;48.898;2.308;2023-04-15T08:08:14;9.42;87.42
66582;SHT31;53438;48.898;2.308;2023-04-15T08:10:40;9.43;87.18
66582;SHT31;53438;48.898;2.308;2023-04-15T08:13:05;9.40;86.90
66582;SHT31;53438;48.898;2.308;2023-04-15T08:15:30;9.43;87.23
66582;SHT31;53438;48.898;2.308;2023-04-15T08:17:57;9.43;87.14
66582;SHT31;53438;48.898;2.308;2023-04-15T08:20:24;9.43;86.96
66582;SHT31;53438;48.898;2.308;2023-04-15T08:22:50;9.45;87.23
66582;SHT31;53438;48.898;2.308;2023-04-15T08:25:16;9.49;87.27
66582;SHT31;53438;48.898;2.308;2023-04-15T08:27:42;9.49;87.15
66582;SHT31;53438;48.898;2.308;2023-04-15T08:30:08;9.52;86.50
66582;SHT31;53438;48.898;2.308;2023-04-15T08:32:33;9.53;86.04
66582;SHT31;53438;48.898;2.308;2023-04-15T08:34:59;9.57;86.03
66582;SHT31;53438;48.898;2.308;2023-04-15T08:37:24;9.69;86.12
66582;SHT31;53438;48.898;2.308;2023-04-15T08:39:51;9.75;85.34
66582;SHT31;53438;48.898;2.308;2023-04-15T08:42:18;9.79;84.15
66582;SHT31;53438;48.898;2.308;2023-04-15T08:44:47;9.83;84.65
66582;SHT31;53438;48.898;2.308;2023-04-15T08:47:13;9.85;83.99
66582;SHT31;53438;48.898;2.308;2023-04-15T08:49:39;9.85;83.30
66582;SHT31;53438;48.898;2.308;2023-04-15T08:52:06;9.87;83.70
66582;SHT31;53438;48.898;2.308;2023-04-15T08:54:32;9.93;83.46
66582;SHT31;53438;48.898;2.308;2023-04-15T08:56:58;9.86;83.44
66582;SHT31;53438;48.898;2.308;2023-04-15T08:59:23;9.89;83.59
66582;SHT31;53438;48.898;2.308;2023-04-15T09:01:49;9.87;83.56
66582;SHT31;53438;48.898;2.308;2023-04-15T09:04:16;9.90;83.33
66582;SHT31;53438;48.898;2.308;2023-04-15T09:06:41;9.86;83.47
66582;SHT31;53438;48.898;2.308;2023-04-15T09:09:06;9.89;83.58
66582;SHT31;53438;48.898;2.308;2023-04-15T09:11:32;9.82;83.80
66582;SHT31;53438;48.898;2.308;2023-04-15T09:13:57;9.75;84.30
66582;SHT31;53438;48.898;2.308;2023-04-15T09:16:23;9.69;84.36
66582;SHT31;53438;48.898;2.308;2023-04-15T09:18:48;9.69;83.81
66582;SHT31;53438;48.898;2.308;2023-04-15T09:21:16;9.75;83.70
66582;SHT31;53438;48.898;2.308;2023-04-15T09:24:00;9.79;83.72
66582;SHT31;53438;48.898;2.308;2023-04-15T09:26:33;9.83;83.98
66582;SHT31;53438;48.898;2.308;2023-04-15T09:29:06;9.83;83.59
66582;SHT31;53438;48.898;2.308;2023-04-15T09:31:32;9.91;83.22
66582;SHT31;53438;48.898;2.308;2023-04-15T09:33:58;9.94;82.95
66582;SHT31;53438;48.898;2.308;2023-04-15T09:36:23;10.06;83.17
66582;SHT31;53438;48.898;2.308;2023-04-15T09:38:58;10.10;83.16
66582;SHT31;53438;48.898;2.308;2023-04-15T09:41:24;10.07;82.67
66582;SHT31;53438;48.898;2.308;2023-04-15T09:43:50;10.11;82.83
66582;SHT31;53438;48.898;2.308;2023-04-15T09:46:16;10.10;82.61
66582;SHT31;53438;48.898;2.308;2023-04-15T09:48:41;10.11;82.51
66582;SHT31;53438;48.898;2.308;2023-04-15T09:51:07;10.18;82.80
66582;SHT31;53438;48.898;2.308;2023-04-15T09:53:34;10.17;82.25
66582;SHT31;53438;48.898;2.308;2023-04-15T09:56:01;10.14;82.15
66582;SHT31;53438;48.898;2.308;2023-04-15T09:58:28;10.17;82.53
66582;SHT31;53438;48.898;2.308;2023-04-15T10:00:56;10.24;82.40
66582;SHT31;53438;48.898;2.308;2023-04-15T10:05:53;10.31;81.35
66582;SHT31;53438;48.898;2.308;2023-04-15T10:08:21;10.38;81.74
66582;SHT31;53438;48.898;2.308;2023-04-15T10:10:48;10.41;81.15
66582;SHT31;53438;48.898;2.308;2023-04-15T10:13:17;10.44;81.34
66582;SHT31;53438;48.898;2.308;2023-04-15T10:15:44;10.58;80.97
66582;SHT31;53438;48.898;2.308;2023-04-15T10:18:14;10.69;80.58
66582;SHT31;53438;48.898;2.308;2023-04-15T10:20:40;10.68;79.81
66582;SHT31;53438;48.898;2.308;2023-04-15T10:23:07;10.72;80.08
66582;SHT31;53438;48.898;2.308;2023-04-15T10:25:33;10.89;80.53
66582;SHT31;53438;48.898;2.308;2023-04-15T10:27:59;10.89;79.60
66582;SHT31;53438;48.898;2.308;2023-04-15T10:30:24;10.79;79.27
66582;SHT31;53438;48.898;2.308;2023-04-15T10:32:50;10.82;79.37
66582;SHT31;53438;48.898;2.308;2023-04-15T10:35:16;10.83;78.99
66582;SHT31;53438;48.898;2.308;2023-04-15T10:37:42;10.86;78.52
66582;SHT31;53438;48.898;2.308;2023-04-15T10:42:54;10.95;78.94
66582;SHT31;53438;48.898;2.308;2023-04-15T10:45:19;10.99;78.59
66582;SHT31;53438;48.898;2.308;2023-04-15T10:47:45;11.06;78.37
66582;SHT31;53438;48.898;2.308;2023-04-15T10:50:10;11.09;78.14
66582;SHT31;53438;48.898;2.308;2023-04-15T10:52:39;11.03;77.86
66582;SHT31;53438;48.898;2.308;2023-04-15T10:57:40;11.16;78.22
66582;SHT31;53438;48.898;2.308;2023-04-15T11:02:45;11.19;77.72
66582;SHT31;53438;48.898;2.308;2023-04-15T11:05:12;11.31;77.54
66582;SHT31;53438;48.898;2.308;2023-04-15T11:07:50;11.36;76.55
66582;SHT31;53438;48.898;2.308;2023-04-15T11:12:46;11.38;76.98
66582;SHT31;53438;48.898;2.308;2023-04-15T11:18:08;11.22;77.00
66582;SHT31;53438;48.898;2.308;2023-04-15T11:20:34;11.20;77.63
66582;SHT31;53438;48.898;2.308;2023-04-15T11:22:59;11.17;77.29
66582;SHT31;53438;48.898;2.308;2023-04-15T11:25:27;11.24;77.20
66582;SHT31;53438;48.898;2.308;2023-04-15T11:27:53;11.33;77.26
66582;SHT31;53438;48.898;2.308;2023-04-15T11:30:24;11.43;77.09
66582;SHT31;53438;48.898;2.308;2023-04-15T11:32:51;11.30;76.28
66582;SHT31;53438;48.898;2.308;2023-04-15T11:35:17;11.28;76.49
66582;SHT31;53438;48.898;2.308;2023-04-15T11:37:44;11.30;76.49
66582;SHT31;53438;48.898;2.308;2023-04-15T11:40:09;11.43;76.30
66582;SHT31;53438;48.898;2.308;2023-04-15T11:42:35;11.38;75.86
66582;SHT31;53438;48.898;2.308;2023-04-15T11:45:11;11.34;75.36
66582;SHT31;53438;48.898;2.308;2023-04-15T11:47:41;11.37;76.01
66582;SHT31;53438;48.898;2.308;2023-04-15T11:50:20;11.48;76.18
66582;SHT31;53438;48.898;2.308;2023-04-15T11:52:55;11.37;75.89
66582;SHT31;53438;48.898;2.308;2023-04-15T11:55:22;11.31;75.62
66582;SHT31;53438;48.898;2.308;2023-04-15T11:57:49;11.37;75.73
66582;SHT31;53438;48.898;2.308;2023-04-15T12:00:15;11.38;75.27
66582;SHT31;53438;48.898;2.308;2023-04-15T12:02:42;11.33;74.80
66582;SHT31;53438;48.898;2.308;2023-04-15T12:05:08;11.38;74.76
66582;SHT31;53438;48.898;2.308;2023-04-15T12:07:56;11.40;74.18
66582;SHT31;53438;48.898;2.308;2023-04-15T12:10:23;11.38;73.56
66582;SHT31;53438;48.898;2.308;2023-04-15T12:12:51;11.44;74.32
66582;SHT31;53438;48.898;2.308;2023-04-15T12:15:20;11.44;74.23
66582;SHT31;53438;48.898;2.308;2023-04-15T12:17:46;11.50;74.49
66582;SHT31;53438;48.898;2.308;2023-04-15T12:20:11;11.48;74.29
66582;SHT31;53438;48.898;2.308;2023-04-15T12:22:37;11.55;74.36
66582;SHT31;53438;48.898;2.308;2023-04-15T12:25:02;11.55;74.40
66582;SHT31;53438;48.898;2.308;2023-04-15T12:27:30;11.67;74.59
66582;SHT31;53438;48.898;2.308;2023-04-15T12:30:06;11.64;74.07
66582;SHT31;53438;48.898;2.308;2023-04-15T12:32:34;11.64;72.92
66582;SHT31;53438;48.898;2.308;2023-04-15T12:35:00;11.60;73.00
66582;SHT31;53438;48.898;2.308;2023-04-15T12:37:25;11.63;73.07
66582;SHT31;53438;48.898;2.308;2023-04-15T12:39:51;11.68;72.05
66582;SHT31;53438;48.898;2.308;2023-04-15T12:42:18;11.63;72.33
66582;SHT31;53438;48.898;2.308;2023-04-15T12:44:44;11.64;72.09
66582;SHT31;53438;48.898;2.308;2023-04-15T12:47:09;11.71;71.48
66582;SHT31;53438;48.898;2.308;2023-04-15T12:49:36;11.74;71.44
66582;SHT31;53438;48.898;2.308;2023-04-15T12:52:02;11.79;71.46
66582;SHT31;53438;48.898;2.308;2023-04-15T12:54:29;11.88;71.27
66582;SHT31;53438;48.898;2.308;2023-04-15T12:56:56;11.85;71.00
66582;SHT31;53438;48.898;2.308;2023-04-15T12:59:22;11.88;70.17
66582;SHT31;53438;48.898;2.308;2023-04-15T13:01:49;11.88;70.10
66582;SHT31;53438;48.898;2.308;2023-04-15T13:04:15;11.85;70.15
66582;SHT31;53438;48.898;2.308;2023-04-15T13:06:41;11.89;70.49
66582;SHT31;53438;48.898;2.308;2023-04-15T13:09:06;11.85;71.00
66582;SHT31;53438;48.898;2.308;2023-04-15T13:11:32;11.86;71.31
66582;SHT31;53438;48.898;2.308;2023-04-15T13:14:02;11.91;71.18
66582;SHT31;53438;48.898;2.308;2023-04-15T13:16:28;11.92;72.34
66582;SHT31;53438;48.898;2.308;2023-04-15T13:18:53;11.91;72.81
66582;SHT31;53438;48.898;2.308;2023-04-15T13:21:19;11.91;72.94
66582;SHT31;53438;48.898;2.308;2023-04-15T13:23:44;11.85;73.32
66582;SHT31;53438;48.898;2.308;2023-04-15T13:26:10;11.89;73.28
66582;SHT31;53438;48.898;2.308;2023-04-15T13:28:35;11.92;73.11
66582;SHT31;53438;48.898;2.308;2023-04-15T13:31:02;11.91;72.53
66582;SHT31;53438;48.898;2.308;2023-04-15T13:33:27;11.99;72.43
66582;SHT31;53438;48.898;2.308;2023-04-15T13:35:53;12.02;72.35
66582;SHT31;53438;48.898;2.308;2023-04-15T13:38:18;11.99;71.71
66582;SHT31;53438;48.898;2.308;2023-04-15T13:40:44;11.96;71.40
66582;SHT31;53438;48.898;2.308;2023-04-15T13:43:10;12.01;70.89
66582;SHT31;53438;48.898;2.308;2023-04-15T13:45:35;12.11;71.26
66582;SHT31;53438;48.898;2.308;2023-04-15T13:48:01;12.13;70.80
66582;SHT31;53438;48.898;2.308;2023-04-15T13:50:27;12.11;69.51
66582;SHT31;53438;48.898;2.308;2023-04-15T13:52:53;12.13;69.77
66582;SHT31;53438;48.898;2.308;2023-04-15T13:55:19;12.15;69.98
66582;SHT31;53438;48.898;2.308;2023-04-15T13:57:44;12.19;70.33
66582;SHT31;53438;48.898;2.308;2023-04-15T14:00:10;12.28;70.16
66582;SHT31;53438;48.898;2.308;2023-04-15T14:02:36;12.33;70.07
66582;SHT31;53438;48.898;2.308;2023-04-15T14:05:01;12.36;70.33
66582;SHT31;53438;48.898;2.308;2023-04-15T14:07:28;12.42;70.15
66582;SHT31;53438;48.898;2.308;2023-04-15T14:09:56;12.39;69.43
66582;SHT31;53438;48.898;2.308;2023-04-15T14:12:21;12.33;69.30
66582;SHT31;53438;48.898;2.308;2023-04-15T14:14:47;12.44;69.21
66582;SHT31;53438;48.898;2.308;2023-04-15T14:17:12;12.44;69.26
66582;SHT31;53438;48.898;2.308;2023-04-15T14:19:37;12.43;69.54
66582;SHT31;53438;48.898;2.308;2023-04-15T14:22:03;12.40;69.14
66582;SHT31;53438;48.898;2.308;2023-04-15T14:24:28;12.50;69.53
66582;SHT31;53438;48.898;2.308;2023-04-15T14:26:54;12.54;69.09
66582;SHT31;53438;48.898;2.308;2023-04-15T14:29:20;12.52;68.86
66582;SHT31;53438;48.898;2.308;2023-04-15T14:31:46;12.60;68.59
66582;SHT31;53438;48.898;2.308;2023-04-15T14:34:13;12.68;68.24
66582;SHT31;53438;48.898;2.308;2023-04-15T14:36:39;12.81;67.83
66582;SHT31;53438;48.898;2.308;2023-04-15T14:39:06;12.87;67.75
66582;SHT31;53438;48.898;2.308;2023-04-15T14:41:31;13.01;66.99
66582;SHT31;53438;48.898;2.308;2023-04-15T14:43:56;13.31;67.31
66582;SHT31;53438;48.898;2.308;2023-04-15T14:46:22;13.35;66.78
66582;SHT31;53438;48.898;2.308;2023-04-15T14:48:48;13.42;66.78
66582;SHT31;53438;48.898;2.308;2023-04-15T14:51:13;13.61;66.30
66582;SHT31;53438;48.898;2.308;2023-04-15T14:53:40;13.43;66.95
66582;SHT31;53438;48.898;2.308;2023-04-15T14:56:05;13.43;66.55
66582;SHT31;53438;48.898;2.308;2023-04-15T14:58:31;13.34;66.59
66582;SHT31;53438;48.898;2.308;2023-04-15T15:00:57;13.25;66.70
66582;SHT31;53438;48.898;2.308;2023-04-15T15:03:23;13.24;67.57
66582;SHT31;53438;48.898;2.308;2023-04-15T15:05:48;13.35;66.99
66582;SHT31;53438;48.898;2.308;2023-04-15T15:08:13;13.28;66.57
66582;SHT31;53438;48.898;2.308;2023-04-15T15:10:39;13.35;66.59
66582;SHT31;53438;48.898;2.308;2023-04-15T15:13:07;13.31;66.63
66582;SHT31;53438;48.898;2.308;2023-04-15T15:15:33;13.29;65.92
66582;SHT31;53438;48.898;2.308;2023-04-15T15:17:59;13.28;65.86
66582;SHT31;53438;48.898;2.308;2023-04-15T15:20:27;13.26;66.53
66582;SHT31;53438;48.898;2.308;2023-04-15T15:22:53;13.35;67.33
66582;SHT31;53438;48.898;2.308;2023-04-15T15:25:18;13.53;66.83
66582;SHT31;53438;48.898;2.308;2023-04-15T15:27:43;13.51;67.81
66582;SHT31;53438;48.898;2.308;2023-04-15T15:30:09;13.56;67.34
66582;SHT31;53438;48.898;2.308;2023-04-15T15:32:35;13.58;66.68
66582;SHT31;53438;48.898;2.308;2023-04-15T15:35:02;13.70;66.58
66582;SHT31;53438;48.898;2.308;2023-04-15T15:37:29;13.84;65.40
66582;SHT31;53438;48.898;2.308;2023-04-15T15:39:55;13.84;65.29
66582;SHT31;53438;48.898;2.308;2023-04-15T15:42:21;13.87;65.18
66582;SHT31;53438;48.898;2.308;2023-04-15T15:44:47;13.87;65.41
66582;SHT31;53438;48.898;2.308;2023-04-15T15:47:14;13.87;65.87
66582;SHT31;53438;48.898;2.308;2023-04-15T15:49:40;13.91;63.65
66582;SHT31;53438;48.898;2.308;2023-04-15T15:52:05;14.01;63.08
66582;SHT31;53438;48.898;2.308;2023-04-15T15:54:31;14.09;62.34
66582;SHT31;53438;48.898;2.308;2023-04-15T15:56:56;14.07;62.04
66582;SHT31;53438;48.898;2.308;2023-04-15T15:59:23;14.06;62.07
66582;SHT31;53438;48.898;2.308;2023-04-15T16:01:48;14.00;62.78
66582;SHT31;53438;48.898;2.308;2023-04-15T16:04:14;14.01;62.84
66582;SHT31;53438;48.898;2.308;2023-04-15T16:06:39;14.07;62.11
66582;SHT31;53438;48.898;2.308;2023-04-15T16:09:05;14.17;62.66
66582;SHT31;53438;48.898;2.308;2023-04-15T16:11:30;14.11;62.42
66582;SHT31;53438;48.898;2.308;2023-04-15T16:13:56;14.01;63.11
66582;SHT31;53438;48.898;2.308;2023-04-15T16:16:21;14.01;63.13
66582;SHT31;53438;48.898;2.308;2023-04-15T16:18:46;13.99;62.58
66582;SHT31;53438;48.898;2.308;2023-04-15T16:21:12;14.13;62.69
66582;SHT31;53438;48.898;2.308;2023-04-15T16:23:37;14.06;63.15
66582;SHT31;53438;48.898;2.308;2023-04-15T16:26:02;14.03;63.15
66582;SHT31;53438;48.898;2.308;2023-04-15T16:28:28;14.06;63.72
66582;SHT31;53438;48.898;2.308;2023-04-15T16:30:54;14.07;63.20
66582;SHT31;53438;48.898;2.308;2023-04-15T16:33:19;14.03;63.98
66582;SHT31;53438;48.898;2.308;2023-04-15T16:35:45;14.16;63.69
66582;SHT31;53438;48.898;2.308;2023-04-15T16:38:10;14.13;64.06
66582;SHT31;53438;48.898;2.308;2023-04-15T16:40:36;14.14;63.74
66582;SHT31;53438;48.898;2.308;2023-04-15T16:43:01;14.03;64.48
66582;SHT31;53438;48.898;2.308;2023-04-15T16:45:27;14.11;65.27
66582;SHT31;53438;48.898;2.308;2023-04-15T16:47:52;14.06;64.62
66582;SHT31;53438;48.898;2.308;2023-04-15T16:50:18;14.10;64.41
66582;SHT31;53438;48.898;2.308;2023-04-15T16:52:43;14.10;64.70
66582;SHT31;53438;48.898;2.308;2023-04-15T16:55:09;14.07;65.17
66582;SHT31;53438;48.898;2.308;2023-04-15T16:57:34;13.96;64.74
66582;SHT31;53438;48.898;2.308;2023-04-15T16:59:59;13.97;65.59
66582;SHT31;53438;48.898;2.308;2023-04-15T17:02:25;13.97;64.83
66582;SHT31;53438;48.898;2.308;2023-04-15T17:04:50;14.01;65.00
66582;SHT31;53438;48.898;2.308;2023-04-15T17:07:15;14.00;65.29
66582;SHT31;53438;48.898;2.308;2023-04-15T17:09:41;13.97;65.61
66582;SHT31;53438;48.898;2.308;2023-04-15T17:12:06;13.90;65.89
66582;SHT31;53438;48.898;2.308;2023-04-15T17:14:32;13.86;66.04
66582;SHT31;53438;48.898;2.308;2023-04-15T17:17:00;13.80;66.30
66582;SHT31;53438;48.898;2.308;2023-04-15T17:19:25;13.76;66.36
66582;SHT31;53438;48.898;2.308;2023-04-15T17:21:52;13.76;66.99
66582;SHT31;53438;48.898;2.308;2023-04-15T17:24:17;13.77;66.37
66582;SHT31;53438;48.898;2.308;2023-04-15T17:26:43;13.80;66.45
66582;SHT31;53438;48.898;2.308;2023-04-15T17:29:08;13.74;67.01
66582;SHT31;53438;48.898;2.308;2023-04-15T17:31:34;13.79;66.94
66582;SHT31;53438;48.898;2.308;2023-04-15T17:33:59;13.74;66.80
66582;SHT31;53438;48.898;2.308;2023-04-15T17:36:25;13.74;67.01
66582;SHT31;53438;48.898;2.308;2023-04-15T17:38:51;13.66;67.10
66582;SHT31;53438;48.898;2.308;2023-04-15T17:41:16;13.67;67.27
66582;SHT31;53438;48.898;2.308;2023-04-15T17:43:42;13.65;67.80
66582;SHT31;53438;48.898;2.308;2023-04-15T17:46:07;13.63;67.76
66582;SHT31;53438;48.898;2.308;2023-04-15T17:48:33;13.61;67.98
66582;SHT31;53438;48.898;2.308;2023-04-15T17:50:59;13.61;67.88
66582;SHT31;53438;48.898;2.308;2023-04-15T17:53:24;13.56;67.91
66582;SHT31;53438;48.898;2.308;2023-04-15T17:55:49;13.51;68.58
66582;SHT31;53438;48.898;2.308;2023-04-15T17:58:20;13.62;68.31
66582;SHT31;53438;48.898;2.308;2023-04-15T18:00:46;13.58;68.24
66582;SHT31;53438;48.898;2.308;2023-04-15T18:03:12;13.58;69.27
66582;SHT31;53438;48.898;2.308;2023-04-15T18:05:37;13.56;68.74
66582;SHT31;53438;48.898;2.308;2023-04-15T18:08:03;13.52;69.43
66582;SHT31;53438;48.898;2.308;2023-04-15T18:10:30;13.46;68.92
66582;SHT31;53438;48.898;2.308;2023-04-15T18:12:55;13.51;69.22
66582;SHT31;53438;48.898;2.308;2023-04-15T18:15:21;13.51;68.77
66582;SHT31;53438;48.898;2.308;2023-04-15T18:17:47;13.53;68.98
66582;SHT31;53438;48.898;2.308;2023-04-15T18:20:12;13.53;68.85
66582;SHT31;53438;48.898;2.308;2023-04-15T18:22:38;13.56;68.93
66582;SHT31;53438;48.898;2.308;2023-04-15T18:25:03;13.51;69.24
66582;SHT31;53438;48.898;2.308;2023-04-15T18:27:30;13.53;69.49
66582;SHT31;53438;48.898;2.308;2023-04-15T18:29:56;13.52;69.34
66582;SHT31;53438;48.898;2.308;2023-04-15T18:32:21;13.49;69.05
66582;SHT31;53438;48.898;2.308;2023-04-15T18:34:47;13.51;69.24
66582;SHT31;53438;48.898;2.308;2023-04-15T18:37:12;13.49;68.71
66582;SHT31;53438;48.898;2.308;2023-04-15T18:39:39;13.49;68.29
66582;SHT31;53438;48.898;2.308;2023-04-15T18:42:04;13.46;68.54
66582;SHT31;53438;48.898;2.308;2023-04-15T18:44:30;13.42;68.95
66582;SHT31;53438;48.898;2.308;2023-04-15T18:46:55;13.46;68.71